Time;durP1;ratioP1;P1;durP2;ratioP2;P2;SDS_P1;SDS_P2;PMS_P1;PMS_P2;Temp;Humidity;BMP_temperature;BMP_pressure;BME280_temperature;BME280_humidity;BME280_pressure;Samples;Min_cycle;Max_cycle;Signal;HPM_P1;HPM_P2
2022/08/11 00:01:18;;;;;;;3.75;1.13;;;;;;;21.30;45.44;100888.81;5045206;28;20459;-91
2022/08/11 00:03:49;;;;;;;4.90;1.10;;;;;;;21.39;45.55;100899.56;5041527;28;20502;-92
2022/08/11 00:06:24;;;;;;;3.08;1.15;;;;;;;21.32;45.60;100889.22;5041692;28;20025;-90
2022/08/11 00:08:52;;;;;;;2.50;1.10;;;;;;;21.28;45.80;100884.88;5038507;28;20029;-89
2022/08/11 00:11:20;;;;;;;2.88;1.10;;;;;;;21.26;45.91;100890.78;5041571;28;20039;-89
2022/08/11 00:13:48;;;;;;;2.50;1.00;;;;;;;21.18;46.14;100888.38;5040091;23;20054;-89
2022/08/11 00:16:20;;;;;;;3.55;1.27;;;;;;;21.18;46.18;100891.94;5042294;28;20026;-89
2022/08/11 00:18:49;;;;;;;2.10;0.77;;;;;;;21.16;46.15;100891.50;5360469;23;20072;-90
2022/08/11 00:21:16;;;;;;;3.15;1.50;;;;;;;21.08;46.41;100892.66;5053846;28;20084;-90
2022/08/11 00:23:56;;;;;;;2.90;1.48;;;;;;;21.19;45.98;100887.97;5053365;28;20097;-89
2022/08/11 00:26:23;;;;;;;2.50;1.20;;;;;;;21.13;46.38;100892.28;5050236;28;20037;-88
2022/08/11 00:28:50;;;;;;;2.85;1.20;;;;;;;21.14;46.33;100880.00;5053606;28;20053;-88
2022/08/11 00:31:35;;;;;;;3.13;1.15;;;;;;;21.16;46.48;100887.94;5050661;28;20063;-89
2022/08/11 00:34:03;;;;;;;3.45;1.35;;;;;;;21.12;46.51;100882.38;5043372;28;20025;-87
2022/08/11 00:36:41;;;;;;;3.88;1.38;;;;;;;21.13;46.68;100886.75;5051965;28;20086;-88
2022/08/11 00:39:09;;;;;;;3.17;1.20;;;;;;;21.08;46.82;100881.56;5050735;28;20025;-88
2022/08/11 00:41:59;;;;;;;3.72;1.48;;;;;;;21.07;46.83;100891.06;5051370;28;20030;-88
2022/08/11 00:44:46;;;;;;;3.47;1.20;;;;;;;21.03;46.90;100895.81;5043926;28;20057;-89
2022/08/11 00:47:27;;;;;;;3.60;1.10;;;;;;;20.86;47.27;100894.50;5050519;28;20052;-90
2022/08/11 00:50:23;;;;;;;2.67;1.02;;;;;;;20.83;47.60;100898.06;5049182;28;20040;-89
2022/08/11 00:53:23;;;;;;;3.90;1.33;;;;;;;20.79;47.70;100899.19;5050353;28;20029;-88
2022/08/11 00:56:00;;;;;;;3.38;1.15;;;;;;;20.72;47.85;100888.88;5036626;28;20113;-87
2022/08/11 00:58:53;;;;;;;3.83;1.40;;;;;;;20.76;47.61;100892.44;5053478;28;20051;-87
2022/08/11 01:01:33;;;;;;;2.90;1.20;;;;;;;20.71;47.82;100885.31;5049934;28;20052;-88
2022/08/11 01:04:30;;;;;;;3.30;1.30;;;;;;;20.63;48.14;100889.19;5050178;28;20037;-88
2022/08/11 01:07:07;;;;;;;2.08;0.85;;;;;;;20.59;48.45;100882.84;5047137;28;20060;-89
2022/08/11 01:09:50;;;;;;;2.00;0.85;;;;;;;20.55;48.64;100882.03;5048069;28;20041;-89
2022/08/11 01:12:40;;;;;;;3.72;1.35;;;;;;;20.44;49.11;100892.22;5045061;28;20033;-89
2022/08/11 01:15:38;;;;;;;2.65;1.17;;;;;;;20.57;48.67;100887.97;5045290;28;20048;-88
2022/08/11 01:18:36;;;;;;;2.72;1.10;;;;;;;20.53;49.06;100894.66;5047169;28;20109;-89
2022/08/11 01:21:21;;;;;;;3.97;1.17;;;;;;;20.40;49.03;100894.94;5015466;28;20488;-90
2022/08/11 01:24:23;;;;;;;3.50;1.17;;;;;;;20.33;49.51;100888.56;5038191;28;20109;-89
2022/08/11 01:27:13;;;;;;;3.25;1.35;;;;;;;20.37;49.37;100887.41;5037451;28;20142;-88
2022/08/11 01:30:01;;;;;;;4.15;1.52;;;;;;;20.27;49.63;100892.81;5037397;28;20033;-88
2022/08/11 01:33:03;;;;;;;2.53;1.15;;;;;;;20.27;49.84;100890.84;5041489;28;20026;-90
2022/08/11 01:35:49;;;;;;;3.45;1.40;;;;;;;20.26;49.93;100886.50;5041629;28;20021;-88
2022/08/11 01:38:39;;;;;;;2.45;1.20;;;;;;;20.24;50.22;100888.06;5040425;28;20366;-91
2022/08/11 01:44:36;;;;;;;4.65;1.20;;;;;;;20.31;49.93;100899.16;5041576;28;20060;-91
2022/08/11 01:50:20;;;;;;;3.38;1.20;;;;;;;20.32;49.92;100889.69;5041487;28;20388;-90
2022/08/11 01:52:58;;;;;;;3.08;1.30;;;;;;;20.28;49.91;100888.88;5043538;28;20030;-90
2022/08/11 01:55:59;;;;;;;3.00;1.20;;;;;;;20.17;50.14;100888.81;5038619;28;20033;-91
2022/08/11 01:58:49;;;;;;;3.53;1.30;;;;;;;20.12;50.14;100887.16;5040939;28;20026;-89
2022/08/11 02:01:41;;;;;;;3.22;1.55;;;;;;;20.06;50.58;100893.44;5039095;28;20079;-90
2022/08/11 02:04:09;;;;;;;3.78;1.48;;;;;;;20.05;51.18;100895.41;5036112;28;20098;-89
2022/08/11 02:06:53;;;;;;;2.55;1.00;;;;;;;20.05;50.76;100898.16;5037231;28;20048;-90
2022/08/11 02:09:27;;;;;;;2.95;1.40;;;;;;;20.00;51.24;100900.50;5040679;28;20037;-90
2022/08/11 02:14:44;;;;;;;3.20;1.10;;;;;;;19.91;51.19;100891.69;5120830;23;20088;-90
2022/08/11 02:17:36;;;;;;;2.65;1.08;;;;;;;19.91;51.49;100891.69;5044664;28;20030;-86
2022/08/11 02:26:24;;;;;;;2.83;1.00;;;;;;;19.75;52.16;100894.69;5041763;28;20056;-87
2022/08/11 02:29:06;;;;;;;3.85;1.30;;;;;;;19.73;52.25;100897.81;5023431;28;20036;-86
2022/08/11 02:34:27;;;;;;;3.22;1.27;;;;;;;19.65;52.45;100907.22;5044354;28;20101;-90
2022/08/11 02:37:02;;;;;;;3.38;1.13;;;;;;;19.61;52.40;100894.50;5045371;28;20052;-90
2022/08/11 02:39:41;;;;;;;3.38;1.45;;;;;;;19.44;52.71;100896.66;5044524;28;20036;-91
2022/08/11 02:42:22;;;;;;;3.78;1.52;;;;;;;19.37;53.39;100891.06;5050991;28;20063;-90
2022/08/11 02:45:19;;;;;;;4.30;1.15;;;;;;;19.36;53.30;100895.00;5209976;23;20048;-91
2022/08/11 02:51:19;;;;;;;4.22;1.25;;;;;;;19.35;53.12;100896.16;5056759;28;20071;-92
2022/08/11 02:54:26;;;;;;;3.53;1.23;;;;;;;19.43;52.87;100897.84;5057224;28;20030;-90
2022/08/11 02:56:51;;;;;;;2.83;0.90;;;;;;;19.41;53.13;100891.09;5052384;28;20041;-88
2022/08/11 03:02:14;;;;;;;2.88;1.08;;;;;;;19.35;53.25;100887.88;5051562;28;20002;-92
2022/08/11 03:05:03;;;;;;;3.38;1.30;;;;;;;19.28;53.37;100893.28;5055241;28;20029;-91
2022/08/11 03:08:01;;;;;;;3.85;1.27;;;;;;;19.33;53.42;100894.94;5036666;28;20159;-91
2022/08/11 03:16:46;;;;;;;2.83;1.10;;;;;;;19.03;54.47;100886.66;5422794;23;20072;-89
2022/08/11 03:19:17;;;;;;;3.03;1.20;;;;;;;18.96;54.80;100886.53;5253712;23;20067;-89
2022/08/11 03:22:04;;;;;;;3.35;1.38;;;;;;;18.82;55.53;100892.69;5147789;23;20079;-87
2022/08/11 03:24:45;;;;;;;2.88;1.30;;;;;;;18.75;55.64;100893.34;5035027;28;20133;-86
2022/08/11 03:27:36;;;;;;;4.72;1.88;;;;;;;18.71;55.69;100884.22;5033456;28;20037;-86
2022/08/11 03:30:16;;;;;;;3.47;1.25;;;;;;;18.74;55.67;100879.94;5046492;28;20034;-90
2022/08/11 03:48:40;;;;;;;3.53;1.33;;;;;;;18.19;59.00;100880.22;5739363;23;20057;-87
2022/08/11 04:09:40;;;;;;;4.05;1.50;;;;;;;17.95;59.91;100886.06;6034888;23;20009;-83
2022/08/11 04:12:33;;;;;;;4.15;1.40;;;;;;;18.00;59.67;100892.09;5038315;28;20018;-81
2022/08/11 04:25:53;;;;;;;3.95;1.70;;;;;;;18.15;59.15;100884.88;5682806;23;20061;-89
2022/08/11 04:33:33;;;;;;;4.35;1.83;;;;;;;17.83;60.63;100886.25;5949207;23;21432;-87
2022/08/11 04:36:10;;;;;;;3.92;1.48;;;;;;;17.67;61.22;100878.84;5558034;23;20057;-91
2022/08/11 04:39:00;;;;;;;4.03;1.65;;;;;;;17.71;61.23;100878.94;5031895;28;20040;-79
2022/08/11 04:41:32;;;;;;;3.70;1.50;;;;;;;17.66;61.29;100879.22;5032438;28;20472;-79
2022/08/11 04:44:31;;;;;;;4.68;1.75;;;;;;;17.73;61.27;100871.91;5032598;28;20418;-78
2022/08/11 04:47:02;;;;;;;4.78;1.75;;;;;;;17.67;61.68;100880.81;5032519;28;20057;-79
2022/08/11 05:01:51;;;;;;;5.53;2.10;;;;;;;17.54;62.90;100879.34;5032001;28;20099;-77
2022/08/11 05:08:00;;;;;;;6.15;1.85;;;;;;;17.53;62.71;100877.75;5033536;28;20052;-77
2022/08/11 05:10:46;;;;;;;6.20;1.70;;;;;;;17.60;62.41;100884.19;5031780;28;20033;-78
2022/08/11 05:36:17;;;;;;;4.50;1.80;;;;;;;17.95;60.34;100905.34;5032638;28;20108;-87
2022/08/11 05:58:34;;;;;;;3.88;1.70;;;;;;;18.72;56.63;100905.13;5054914;28;20121;-92
2022/08/11 06:01:00;;;;;;;4.38;1.70;;;;;;;18.80;56.54;100904.06;5055365;28;20043;-91
2022/08/11 06:03:27;;;;;;;;;;;;;;;18.84;55.85;100902.16;5056686;28;20061;-90
2022/08/11 06:05:53;;;;;;;5.00;1.58;;;;;;;18.89;56.04;100904.59;5053332;28;19955;-89
2022/08/11 06:08:26;;;;;;;;;;;;;;;19.02;55.62;100902.41;5054342;28;20037;-91
2022/08/11 06:10:58;;;;;;;4.20;1.58;;;;;;;19.18;55.58;100903.03;5050781;28;19909;-91
2022/08/11 06:13:24;;;;;;;4.05;1.70;;;;;;;19.29;55.51;100902.38;5049333;28;20088;-90
2022/08/11 06:15:51;;;;;;;4.45;1.60;;;;;;;19.42;55.34;100903.72;5045420;28;20104;-89
2022/08/11 06:18:18;;;;;;;7.05;1.70;;;;;;;19.57;54.81;100901.97;5046316;28;20059;-89
2022/08/11 06:20:55;;;;;;;4.50;1.75;;;;;;;19.62;53.78;100904.38;5047922;28;20061;-88
2022/08/11 06:23:22;;;;;;;3.65;1.50;;;;;;;19.61;53.33;100900.84;5043894;28;20113;-90
2022/08/11 06:25:50;;;;;;;5.93;1.65;;;;;;;19.69;53.65;100899.75;5042160;28;20030;-90
2022/08/11 06:28:18;;;;;;;3.30;1.40;;;;;;;19.79;53.05;100890.78;5044681;28;20173;-88
2022/08/11 06:30:45;;;;;;;4.60;1.73;;;;;;;19.92;53.00;100893.28;5051778;28;20040;-90
2022/08/11 06:33:15;;;;;;;4.15;1.80;;;;;;;20.12;52.74;100898.22;5050591;28;20045;-90
2022/08/11 06:35:50;;;;;;;4.53;1.60;;;;;;;20.32;51.88;100890.53;5045995;28;20038;-90
2022/08/11 06:38:37;;;;;;;5.03;1.65;;;;;;;20.47;50.88;100891.44;5025711;28;20033;-90
2022/08/11 06:44:15;;;;;;;4.40;1.85;;;;;;;21.72;47.83;100887.41;5039886;28;19915;-90
2022/08/11 06:46:49;;;;;;;5.20;2.00;;;;;;;22.26;45.71;100885.53;5042344;28;20479;-90
2022/08/11 06:52:04;;;;;;;3.53;1.60;;;;;;;22.95;43.55;100882.34;5041560;28;20052;-91
2022/08/11 06:54:33;;;;;;;7.68;1.90;;;;;;;23.00;43.25;100892.22;5021774;28;20296;-91
2022/08/11 07:02:33;;;;;;;3.53;1.63;;;;;;;23.34;42.88;100895.28;5041371;28;20024;-91
2022/08/11 07:05:09;;;;;;;4.20;2.22;;;;;;;23.59;42.50;100896.03;5048460;28;20022;-90
2022/08/11 07:28:54;;;;;;;3.45;1.40;;;;;;;23.44;42.99;100902.81;4956410;29;20077;-90
2022/08/11 07:29:03;;;;;;;4.40;1.52;;;;;;;22.67;44.78;100896.22;5044241;28;20064;-90
2022/08/11 07:31:40;;;;;;;6.07;2.35;;;;;;;22.54;44.88;100898.63;5020624;28;20079;-89
2022/08/11 07:34:33;;;;;;;6.65;2.35;;;;;;;22.75;44.58;100897.81;5038209;28;20025;-90
2022/08/11 07:37:07;;;;;;;4.75;2.00;;;;;;;23.01;44.31;100893.81;5046039;28;20033;-90
2022/08/11 07:39:35;;;;;;;5.03;2.22;;;;;;;23.06;43.49;100897.00;5042937;28;20133;-91
2022/08/11 07:42:06;;;;;;;4.32;1.73;;;;;;;23.13;44.03;100896.16;5040253;28;20104;-89
2022/08/11 07:48:10;;;;;;;4.55;1.98;;;;;;;23.26;42.92;100893.75;5045368;28;20037;-89
2022/08/11 07:52:52;;;;;;;4.28;1.52;;;;;;;23.74;42.32;100884.84;5042431;28;20035;-90
2022/08/11 07:55:20;;;;;;;4.18;1.95;;;;;;;23.94;41.86;100895.03;5027697;28;20036;-89
2022/08/11 08:20:11;;;;;;;5.03;1.88;;;;;;;24.90;38.75;100883.13;5051804;28;20106;-90
2022/08/11 08:22:40;;;;;;;3.63;1.52;;;;;;;25.00;38.71;100880.66;5192467;23;20045;-91
2022/08/11 08:25:07;;;;;;;4.13;1.60;;;;;;;25.05;39.01;100883.00;5049945;28;20050;-91
2022/08/11 08:27:34;;;;;;;3.63;1.60;;;;;;;25.02;39.46;100879.03;5041015;28;20131;-90
2022/08/11 08:32:47;;;;;;;3.13;1.58;;;;;;;25.40;38.84;100879.78;5051911;28;20067;-89
2022/08/11 08:35:14;;;;;;;3.95;1.70;;;;;;;25.69;37.37;100882.19;5049865;28;20034;-88
2022/08/11 08:37:39;;;;;;;3.60;1.73;;;;;;;25.78;36.44;100876.91;5213334;23;20000;-90
2022/08/11 08:40:09;;;;;;;3.72;1.63;;;;;;;25.88;37.52;100880.78;5030061;28;20060;-89
2022/08/11 08:42:44;;;;;;;3.40;1.58;;;;;;;25.83;36.21;100884.00;5050560;28;20384;-90
2022/08/11 08:45:15;;;;;;;3.30;1.60;;;;;;;25.92;36.66;100884.28;5034748;28;20077;-89
2022/08/11 08:47:44;;;;;;;3.78;1.80;;;;;;;25.87;36.48;100882.78;5050388;28;20029;-89
2022/08/11 08:50:12;;;;;;;4.88;1.95;;;;;;;25.91;36.72;100877.13;5053639;28;20021;-90
2022/08/11 08:52:41;;;;;;;3.95;1.63;;;;;;;26.17;37.02;100881.09;5048573;28;20060;-89
2022/08/11 08:55:11;;;;;;;3.42;1.60;;;;;;;26.46;35.95;100885.03;5075449;23;20049;-88
2022/08/11 09:00:15;;;;;;;7.35;2.10;;;;;;;26.25;35.27;100886.16;5513637;23;20045;-87
2022/08/11 09:02:42;;;;;;;3.20;1.38;;;;;;;26.45;36.29;100889.03;5037851;28;20020;-88
2022/08/11 09:05:11;;;;;;;3.80;1.63;;;;;;;26.73;33.69;100879.38;5646155;23;20651;-81
2022/08/11 09:07:38;;;;;;;3.55;1.70;;;;;;;26.82;34.09;100884.41;5419850;23;20129;-87
2022/08/11 09:10:05;;;;;;;3.70;1.30;;;;;;;26.91;33.50;100882.63;5288824;23;20254;-89
2022/08/11 09:12:33;;;;;;;3.03;1.60;;;;;;;26.82;33.17;100882.41;5053614;28;20053;-91
2022/08/11 09:15:02;;;;;;;3.17;1.70;;;;;;;26.97;33.40;100880.13;5036657;28;20022;-88
2022/08/11 09:28:30;;;;;;;3.30;1.50;;;;;;;27.03;32.27;100878.44;5057213;28;20056;-90
2022/08/11 09:30:59;;;;;;;3.10;1.40;;;;;;;27.26;30.81;100881.16;5085427;23;20088;-88
2022/08/11 09:33:27;;;;;;;3.22;1.40;;;;;;;27.10;31.06;100878.31;5619903;23;20067;-87
2022/08/11 09:35:53;;;;;;;4.25;1.63;;;;;;;27.36;29.58;100867.38;5241819;23;20053;-87
2022/08/11 09:41:08;;;;;;;4.30;1.30;;;;;;;27.60;30.26;100870.88;5098593;23;20133;-89
2022/08/11 09:46:29;;;;;;;3.63;1.40;;;;;;;27.57;30.44;100856.53;5093394;23;20072;-89
2022/08/11 09:48:58;;;;;;;4.35;1.85;;;;;;;27.69;30.22;100866.28;5539704;23;20056;-90
2022/08/11 09:51:26;;;;;;;3.88;1.83;;;;;;;28.09;30.29;100866.19;5096442;23;20054;-91
2022/08/11 09:53:52;;;;;;;3.08;1.48;;;;;;;27.97;30.43;100864.84;5305571;23;20066;-91
2022/08/11 10:01:49;;;;;;;4.03;1.80;;;;;;;28.47;28.99;100860.84;5593006;23;20125;-81
2022/08/11 10:04:19;;;;;;;5.00;1.65;;;;;;;28.28;28.77;100859.72;5412707;23;20068;-90
2022/08/11 10:07:01;;;;;;;3.35;1.48;;;;;;;28.32;28.32;100857.63;5050023;28;20049;-90
2022/08/11 10:09:40;;;;;;;5.25;1.48;;;;;;;28.33;27.77;100850.78;5062284;23;20112;-88
2022/08/11 10:12:13;;;;;;;4.55;1.80;;;;;;;28.34;27.51;100852.34;5056147;28;20049;-87
2022/08/11 10:17:32;;;;;;;3.65;1.50;;;;;;;28.50;27.24;100842.38;5530378;23;20051;-82
2022/08/11 10:20:01;;;;;;;4.00;1.50;;;;;;;28.49;27.33;100843.59;5706125;23;20111;-90
2022/08/11 10:28:07;;;;;;;3.60;1.83;;;;;;;28.57;26.80;100836.59;5036458;28;20043;-89
2022/08/11 10:36:04;;;;;;;4.43;2.08;;;;;;;28.50;28.10;100831.16;5796626;23;20052;-80
2022/08/11 10:38:30;;;;;;;8.82;2.33;;;;;;;28.48;27.64;100823.19;5869825;23;20020;-88
2022/08/11 10:43:50;;;;;;;3.75;1.45;;;;;;;28.37;27.00;100826.28;5171309;23;20148;-89
2022/08/11 10:49:00;;;;;;;3.13;1.42;;;;;;;28.81;27.73;100818.28;5385776;23;20088;-89
2022/08/11 10:59:53;;;;;;;4.97;1.65;;;;;;;29.01;26.40;100815.34;5057708;28;20060;-89
2022/08/11 11:02:20;;;;;;;3.85;1.90;;;;;;;28.83;26.97;100799.03;5208244;23;21168;-88
2022/08/11 11:07:25;;;;;;;3.10;1.43;;;;;;;29.12;26.56;100799.00;5618325;23;20045;-89
2022/08/11 11:18:10;;;;;;;2.78;1.40;;;;;;;29.17;26.43;100798.44;5269366;23;20031;-91
2022/08/11 11:20:42;;;;;;;3.28;1.55;;;;;;;29.15;26.38;100789.72;5050875;28;20033;-92
2022/08/11 11:23:18;;;;;;;5.32;1.58;;;;;;;29.30;26.54;100788.03;5052556;28;20036;-89
2022/08/11 11:26:08;;;;;;;4.82;1.70;;;;;;;29.33;26.13;100786.34;5051907;28;20063;-90
2022/08/11 11:29:02;;;;;;;5.95;1.90;;;;;;;29.73;25.68;100780.31;5053280;28;20033;-90
2022/08/11 11:31:59;;;;;;;3.25;1.58;;;;;;;29.18;26.27;100779.59;5051730;28;20033;-89
2022/08/11 11:35:04;;;;;;;5.13;1.58;;;;;;;29.47;25.99;100773.94;5052061;28;20084;-91
2022/08/11 11:37:34;;;;;;;3.92;1.55;;;;;;;29.18;26.35;100771.97;5052922;28;20099;-89
2022/08/11 11:40:02;;;;;;;4.75;1.77;;;;;;;29.44;25.45;100778.41;5037452;28;20029;-88
2022/08/11 11:42:28;;;;;;;3.75;1.77;;;;;;;29.66;25.72;100770.13;5034077;28;20042;-88
2022/08/11 11:44:54;;;;;;;3.30;1.50;;;;;;;29.60;25.46;100767.09;5306640;23;20114;-91
2022/08/11 11:47:21;;;;;;;3.35;1.60;;;;;;;29.36;25.89;100760.22;5049560;28;20116;-88
2022/08/11 11:49:48;;;;;;;4.20;1.60;;;;;;;29.55;25.69;100759.22;5095094;23;20061;-89
2022/08/11 11:52:18;;;;;;;2.97;1.58;;;;;;;29.78;25.69;100752.50;5054136;28;20045;-88
2022/08/11 11:54:49;;;;;;;4.85;1.40;;;;;;;30.01;25.03;100750.53;5053909;28;20066;-90
2022/08/11 12:02:46;;;;;;;;;;;;;;;30.25;24.34;100754.53;5044180;28;20052;-88
2022/08/11 12:05:13;;;;;;;3.33;1.60;;;;;;;29.97;24.52;100745.03;5048191;28;20252;-89
2022/08/11 12:10:24;;;;;;;3.45;1.67;;;;;;;29.91;25.48;100741.25;5036312;28;20048;-87
2022/08/11 12:15:36;;;;;;;;;;;;;;;30.27;25.49;100740.81;5047888;28;20107;-88
2022/08/11 12:18:02;;;;;;;3.27;1.50;;;;;;;30.27;25.25;100745.66;5043820;28;19917;-87
2022/08/11 12:20:28;;;;;;;3.70;1.70;;;;;;;30.00;25.33;100735.69;5028656;28;20447;-87
2022/08/11 12:28:25;;;;;;;4.22;1.73;;;;;;;30.16;25.13;100729.94;5050752;28;20087;-91
2022/08/11 12:30:52;;;;;;;3.13;1.58;;;;;;;30.26;25.27;100719.59;5048417;28;20064;-88
2022/08/11 12:33:18;;;;;;;5.63;2.30;;;;;;;30.30;25.15;100706.19;5042587;28;20403;-87
2022/08/11 12:35:46;;;;;;;3.05;1.40;;;;;;;30.48;25.22;100711.16;5056533;28;20033;-86
2022/08/11 12:38:13;;;;;;;3.50;1.63;;;;;;;30.28;25.35;100705.09;5057266;28;20081;-88
2022/08/11 12:46:18;;;;;;;5.00;1.50;;;;;;;31.36;24.00;100695.75;5055040;28;20117;-88
2022/08/11 12:54:26;;;;;;;3.20;1.50;;;;;;;31.14;23.65;100707.03;5052051;28;20032;-88
2022/08/11 13:05:35;;;;;;;3.97;1.73;;;;;;;32.52;21.99;100679.13;5020023;28;20084;-89
2022/08/11 13:08:02;;;;;;;3.55;1.80;;;;;;;32.52;22.18;100679.91;5023953;28;20050;-88
2022/08/11 13:13:17;;;;;;;4.35;1.60;;;;;;;32.01;22.39;100680.56;5022871;28;20068;-89
2022/08/11 13:15:46;;;;;;;4.13;1.60;;;;;;;32.40;22.27;100669.59;5026981;28;20053;-89
2022/08/11 13:18:16;;;;;;;3.25;1.55;;;;;;;32.91;21.76;100657.56;5029344;28;20022;-90
2022/08/11 13:20:44;;;;;;;3.13;1.40;;;;;;;32.99;21.41;100670.09;5028614;28;20487;-88
2022/08/11 13:23:12;;;;;;;3.60;1.50;;;;;;;33.21;22.86;100664.97;5026933;28;20052;-89
2022/08/11 13:25:38;;;;;;;4.35;1.40;;;;;;;33.57;20.76;100653.97;5008466;28;20030;-89
2022/08/11 13:28:04;;;;;;;10.88;1.92;;;;;;;33.04;21.16;100655.34;5024656;28;20037;-86
2022/08/11 13:33:17;;;;;;;4.55;2.17;;;;;;;32.27;22.20;100661.34;5024387;28;20064;-89
2022/08/11 13:35:46;;;;;;;3.20;1.67;;;;;;;32.49;21.86;100652.69;5024785;28;20049;-87
2022/08/11 13:38:12;;;;;;;3.30;1.48;;;;;;;32.31;22.00;100656.31;5005827;28;20040;-88
2022/08/11 13:40:39;;;;;;;3.17;1.58;;;;;;;32.20;22.33;100646.75;5005336;28;20120;-89
2022/08/11 13:43:05;;;;;;;3.53;1.50;;;;;;;32.71;21.36;100654.50;5022226;28;20044;-88
2022/08/11 13:45:34;;;;;;;3.50;1.65;;;;;;;32.71;21.64;100654.50;5018790;28;20036;-86
2022/08/11 13:48:05;;;;;;;2.95;1.50;;;;;;;32.50;21.97;100648.59;5016979;28;20026;-85
2022/08/11 13:53:21;;;;;;;2.72;1.33;;;;;;;32.86;21.50;100639.28;5020474;28;20041;-87
2022/08/11 13:55:48;;;;;;;3.97;1.38;;;;;;;33.77;21.48;100643.63;5021531;28;20120;-89
2022/08/11 13:58:15;;;;;;;3.30;1.65;;;;;;;33.42;21.23;100639.78;5027667;28;20026;-88
2022/08/11 14:00:44;;;;;;;3.53;1.75;;;;;;;33.27;21.35;100638.94;5017643;28;20030;-88
2022/08/11 14:03:11;;;;;;;3.30;1.73;;;;;;;32.52;22.23;100642.50;4999828;28;20029;-88
2022/08/11 14:05:46;;;;;;;3.63;1.60;;;;;;;32.46;22.12;100638.75;4999733;28;20475;-88
2022/08/11 14:08:16;;;;;;;3.23;1.30;;;;;;;32.20;22.24;100632.66;5019796;28;20397;-87
2022/08/11 14:13:36;;;;;;;3.28;1.60;;;;;;;32.29;22.63;100636.28;5019121;28;20034;-87
2022/08/11 14:13:39;;;;;;;5.15;1.50;;;;;;;32.70;21.70;100631.16;5023646;28;20123;-89
2022/08/11 14:16:36;;;;;;;4.15;1.60;;;;;;;32.47;22.06;100626.22;5024580;28;20072;-88
2022/08/11 14:19:10;;;;;;;3.22;1.60;;;;;;;32.39;22.05;100628.56;5020889;28;20093;-88
2022/08/11 14:24:25;;;;;;;3.65;1.60;;;;;;;32.27;22.16;100621.09;5020041;28;20161;-89
2022/08/11 14:26:52;;;;;;;4.70;1.30;;;;;;;32.29;21.86;100624.22;5020842;28;20036;-90
2022/08/11 14:29:20;;;;;;;3.45;1.77;;;;;;;32.14;22.11;100624.06;5019746;28;20026;-88
2022/08/11 14:31:51;;;;;;;3.53;1.42;;;;;;;32.31;21.91;100622.50;5006785;28;20021;-90
2022/08/11 14:34:25;;;;;;;4.95;1.50;;;;;;;31.73;22.40;100633.91;5030513;28;20033;-87
2022/08/11 14:36:54;;;;;;;4.90;2.00;;;;;;;31.58;22.43;100624.50;5011711;28;20052;-90
2022/08/11 14:39:28;;;;;;;4.07;1.88;;;;;;;31.45;22.84;100621.84;5118523;23;20091;-89
2022/08/11 14:47:36;;;;;;;3.65;1.50;;;;;;;31.96;21.91;100612.81;5708728;23;20030;-89
2022/08/11 14:50:04;;;;;;;3.58;1.70;;;;;;;31.89;22.00;100608.28;5058361;28;20085;-88
2022/08/11 14:52:33;;;;;;;2.63;1.27;;;;;;;31.63;22.36;100619.03;5051708;28;20032;-91
2022/08/11 14:57:44;;;;;;;3.50;1.75;;;;;;;30.66;23.05;100610.13;5052676;28;20052;-88
2022/08/11 15:00:17;;;;;;;7.72;1.90;;;;;;;30.34;23.74;100610.56;5052407;28;20033;-90
2022/08/11 15:05:30;;;;;;;3.58;1.67;;;;;;;30.09;23.79;100601.06;5027867;28;20044;-88
2022/08/11 15:07:58;;;;;;;4.05;1.63;;;;;;;30.01;23.80;100594.09;5026339;28;20042;-88
2022/08/11 15:10:36;;;;;;;2.75;1.40;;;;;;;30.11;23.85;100597.78;5023951;28;20089;-89
2022/08/11 15:13:05;;;;;;;3.47;1.50;;;;;;;30.13;23.60;100598.88;5007280;28;20046;-91
2022/08/11 15:18:22;;;;;;;2.97;1.48;;;;;;;30.01;23.63;100585.66;5028669;28;20061;-91
2022/08/11 15:37:40;;;;;;;3.38;1.80;;;;;;;29.76;23.81;100574.56;5024233;28;20045;-89
2022/08/11 15:46:46;;;;;;;4.57;1.80;;;;;;;29.70;23.87;100559.53;5022979;28;20096;-88
2022/08/11 15:49:15;;;;;;;4.28;1.73;;;;;;;29.76;23.52;100558.50;5010847;28;20046;-87
2022/08/11 15:51:44;;;;;;;3.45;1.55;;;;;;;29.69;24.16;100566.38;5017233;28;20017;-87
2022/08/11 15:54:12;;;;;;;3.05;1.50;;;;;;;29.62;24.08;100568.22;5014913;28;20100;-87
2022/08/11 15:56:41;;;;;;;3.20;1.65;;;;;;;29.68;24.14;100573.25;5030895;28;20060;-91
2022/08/11 16:04:40;;;;;;;3.80;1.30;;;;;;;29.61;24.45;100563.06;5034459;28;20040;-89
2022/08/11 16:07:13;;;;;;;3.58;1.60;;;;;;;29.71;24.34;100563.91;5032549;28;20017;-89
2022/08/11 16:09:46;;;;;;;3.60;1.80;;;;;;;29.65;23.88;100561.69;5371326;23;20045;-88
2022/08/11 16:12:15;;;;;;;3.00;1.45;;;;;;;29.71;23.62;100552.69;5033417;28;20025;-87
2022/08/11 16:17:39;;;;;;;3.63;1.60;;;;;;;29.62;24.08;100545.78;5080518;23;20045;-88
2022/08/11 16:20:07;;;;;;;4.72;2.00;;;;;;;29.69;23.99;100541.13;5035892;28;20046;-87
2022/08/11 16:22:42;;;;;;;3.85;1.70;;;;;;;29.68;24.12;100543.16;5106273;23;20061;-90
2022/08/11 16:25:20;;;;;;;3.50;1.70;;;;;;;29.70;24.03;100545.50;5054156;28;20037;-91
2022/08/11 16:27:50;;;;;;;4.68;1.60;;;;;;;29.67;23.95;100538.00;5047839;28;20033;-91
2022/08/11 16:30:19;;;;;;;3.30;1.65;;;;;;;29.72;23.88;100541.00;5028445;28;20040;-89
2022/08/11 16:32:51;;;;;;;2.92;1.45;;;;;;;29.69;23.55;100532.72;5049283;28;20037;-89
2022/08/11 16:38:34;;;;;;;4.95;1.70;;;;;;;29.66;23.75;100540.03;5047324;28;20064;-91
2022/08/11 16:41:07;;;;;;;3.80;1.70;;;;;;;29.80;23.76;100539.50;5029252;28;20128;-88
2022/08/11 16:46:59;;;;;;;4.07;1.70;;;;;;;29.57;24.14;100537.94;5001905;28;20481;-90
2022/08/11 16:49:35;;;;;;;3.60;1.77;;;;;;;29.60;24.14;100548.25;5001254;28;20034;-90
2022/08/11 16:52:04;;;;;;;3.58;1.50;;;;;;;29.52;24.59;100544.13;5029875;28;20049;-87
2022/08/11 16:54:49;;;;;;;2.90;1.50;;;;;;;29.48;24.54;100540.66;5042910;28;20116;-88
2022/08/11 17:00:11;;;;;;;3.20;1.40;;;;;;;29.31;24.66;100542.81;5041782;28;20116;-86
2022/08/11 17:14:11;;;;;;;3.65;1.60;;;;;;;29.21;24.33;100534.75;5019643;28;20093;-87
2022/08/11 17:16:39;;;;;;;3.47;1.55;;;;;;;29.22;24.33;100528.69;5019686;28;20030;-85
2022/08/11 17:19:11;;;;;;;3.97;1.83;;;;;;;29.28;24.68;100534.53;5014642;28;20068;-85
2022/08/11 17:24:30;;;;;;;3.53;1.73;;;;;;;29.20;24.22;100530.38;5015166;28;20056;-86
2022/08/11 17:26:56;;;;;;;3.42;1.70;;;;;;;29.18;24.48;100528.03;4997348;28;20112;-86
2022/08/11 17:29:53;;;;;;;3.47;1.70;;;;;;;29.14;24.37;100526.59;5014872;28;20425;-85
2022/08/11 17:38:02;;;;;;;3.58;1.77;;;;;;;29.22;25.00;100523.09;5018928;28;20064;-90
2022/08/11 17:40:30;;;;;;;3.72;1.60;;;;;;;29.20;24.73;100522.75;5072012;23;20083;-88
2022/08/11 17:48:39;;;;;;;5.28;1.60;;;;;;;28.87;25.01;100527.88;5039853;28;20032;-89
2022/08/11 17:51:06;;;;;;;3.53;1.63;;;;;;;28.84;25.35;100534.34;5044328;28;20056;-89
2022/08/11 18:03:27;;;;;;;3.78;1.60;;;;;;;28.73;25.67;100528.34;5040257;28;20187;-88
2022/08/11 18:04:42;;;;;;;3.85;2.00;;;;;;;28.72;25.68;100537.94;5038836;28;20049;-86
